sensor_id;sensor_type;location;lat;lon;timestamp;temperature;humidity
60033;DHT22;45905;50.570;10.428;2023-06-24T00:00:35;15.30;99.90
60033;DHT22;45905;50.570;10.428;2023-06-24T00:03:04;15.30;99.90
60033;DHT22;45905;50.570;10.428;2023-06-24T00:05:35;15.20;99.90
60033;DHT22;45905;50.570;10.428;2023-06-24T00:08:02;15.20;99.90
60033;DHT22;45905;50.570;10.428;2023-06-24T00:10:30;15.20;99.90
60033;DHT22;45905;50.570;10.428;2023-06-24T00:12:58;15.20;99.90
60033;DHT22;45905;50.570;10.428;2023-06-24T00:15:28;15.10;99.90
60033;DHT22;45905;50.570;10.428;2023-06-24T00:17:55;15.20;99.90
60033;DHT22;45905;50.570;10.428;2023-06-24T00:20:33;15.10;99.90
60033;DHT22;45905;50.570;10.428;2023-06-24T00:23:00;15.10;99.90
60033;DHT22;45905;50.570;10.428;2023-06-24T00:25:29;15.10;99.90
60033;DHT22;45905;50.570;10.428;2023-06-24T00:27:57;15.10;99.90
60033;DHT22;45905;50.570;10.428;2023-06-24T00:30:26;15.20;99.90
60033;DHT22;45905;50.570;10.428;2023-06-24T00:32:55;15.00;99.90
60033;DHT22;45905;50.570;10.428;2023-06-24T00:35:23;14.90;99.90
60033;DHT22;45905;50.570;10.428;2023-06-24T00:37:51;14.90;99.90
60033;DHT22;45905;50.570;10.428;2023-06-24T00:40:26;15.00;99.90
60033;DHT22;45905;50.570;10.428;2023-06-24T00:42:53;14.90;99.90
60033;DHT22;45905;50.570;10.428;2023-06-24T00:45:21;14.70;99.90
60033;DHT22;45905;50.570;10.428;2023-06-24T00:47:49;14.70;99.90
60033;DHT22;45905;50.570;10.428;2023-06-24T00:50:17;14.70;99.90
60033;DHT22;45905;50.570;10.428;2023-06-24T00:52:44;14.50;99.90
60033;DHT22;45905;50.570;10.428;2023-06-24T00:55:12;14.60;99.90
60033;DHT22;45905;50.570;10.428;2023-06-24T00:57:43;14.70;99.90
60033;DHT22;45905;50.570;10.428;2023-06-24T01:00:13;14.80;99.90
60033;DHT22;45905;50.570;10.428;2023-06-24T01:02:43;14.60;99.90
60033;DHT22;45905;50.570;10.428;2023-06-24T01:05:12;14.50;99.90
60033;DHT22;45905;50.570;10.428;2023-06-24T01:07:40;14.80;99.90
60033;DHT22;45905;50.570;10.428;2023-06-24T01:10:10;14.80;99.90
60033;DHT22;45905;50.570;10.428;2023-06-24T01:12:40;14.60;99.90
60033;DHT22;45905;50.570;10.428;2023-06-24T01:15:11;14.60;99.90
60033;DHT22;45905;50.570;10.428;2023-06-24T01:17:53;14.60;99.90
60033;DHT22;45905;50.570;10.428;2023-06-24T01:20:32;14.70;99.90
60033;DHT22;45905;50.570;10.428;2023-06-24T01:35:12;14.50;99.90
60033;DHT22;45905;50.570;10.428;2023-06-24T01:37:53;15.00;99.90
60033;DHT22;45905;50.570;10.428;2023-06-24T01:40:39;15.10;99.90
60033;DHT22;45905;50.570;10.428;2023-06-24T01:43:10;14.90;99.90
60033;DHT22;45905;50.570;10.428;2023-06-24T01:45:46;14.80;99.90
60033;DHT22;45905;50.570;10.428;2023-06-24T01:48:28;14.80;99.90
60033;DHT22;45905;50.570;10.428;2023-06-24T01:51:06;14.80;99.90
60033;DHT22;45905;50.570;10.428;2023-06-24T01:53:52;14.80;99.90
60033;DHT22;45905;50.570;10.428;2023-06-24T01:56:26;14.40;99.90
60033;DHT22;45905;50.570;10.428;2023-06-24T01:58:58;14.80;99.90
60033;DHT22;45905;50.570;10.428;2023-06-24T02:01:28;14.90;99.90
60033;DHT22;45905;50.570;10.428;2023-06-24T02:03:57;14.60;99.90
60033;DHT22;45905;50.570;10.428;2023-06-24T02:06:28;14.60;99.90
60033;DHT22;45905;50.570;10.428;2023-06-24T02:08:59;14.50;99.90
60033;DHT22;45905;50.570;10.428;2023-06-24T02:11:30;14.80;99.90
60033;DHT22;45905;50.570;10.428;2023-06-24T02:14:00;15.60;99.90
60033;DHT22;45905;50.570;10.428;2023-06-24T02:16:29;14.70;99.90
60033;DHT22;45905;50.570;10.428;2023-06-24T02:18:58;15.00;99.90
60033;DHT22;45905;50.570;10.428;2023-06-24T02:21:29;14.70;99.90
60033;DHT22;45905;50.570;10.428;2023-06-24T02:23:58;14.70;99.90
60033;DHT22;45905;50.570;10.428;2023-06-24T02:26:26;14.70;99.90
60033;DHT22;45905;50.570;10.428;2023-06-24T02:28:54;14.80;99.90
60033;DHT22;45905;50.570;10.428;2023-06-24T02:31:22;14.50;99.90
60033;DHT22;45905;50.570;10.428;2023-06-24T02:33:50;14.50;99.90
60033;DHT22;45905;50.570;10.428;2023-06-24T02:36:18;14.60;99.90
60033;DHT22;45905;50.570;10.428;2023-06-24T02:38:46;14.40;99.90
60033;DHT22;45905;50.570;10.428;2023-06-24T02:41:13;14.70;99.90
60033;DHT22;45905;50.570;10.428;2023-06-24T02:43:41;14.60;99.90
60033;DHT22;45905;50.570;10.428;2023-06-24T02:46:09;14.60;99.90
60033;DHT22;45905;50.570;10.428;2023-06-24T02:48:40;14.70;99.90
60033;DHT22;45905;50.570;10.428;2023-06-24T02:51:09;14.50;99.90
60033;DHT22;45905;50.570;10.428;2023-06-24T02:53:38;14.50;99.90
60033;DHT22;45905;50.570;10.428;2023-06-24T02:56:09;14.50;99.90
60033;DHT22;45905;50.570;10.428;2023-06-24T02:58:42;14.70;99.90
60033;DHT22;45905;50.570;10.428;2023-06-24T03:01:19;14.50;99.90
60033;DHT22;45905;50.570;10.428;2023-06-24T03:03:54;14.50;99.90
60033;DHT22;45905;50.570;10.428;2023-06-24T03:06:22;14.40;99.90
60033;DHT22;45905;50.570;10.428;2023-06-24T03:08:54;14.30;99.90
60033;DHT22;45905;50.570;10.428;2023-06-24T03:11:22;14.20;99.90
60033;DHT22;45905;50.570;10.428;2023-06-24T03:13:51;14.40;99.90
60033;DHT22;45905;50.570;10.428;2023-06-24T03:16:39;14.10;99.90
60033;DHT22;45905;50.570;10.428;2023-06-24T03:19:12;14.40;99.90
60033;DHT22;45905;50.570;10.428;2023-06-24T03:24:14;14.00;99.90
60033;DHT22;45905;50.570;10.428;2023-06-24T03:26:44;17.40;99.90
60033;DHT22;45905;50.570;10.428;2023-06-24T03:29:13;14.00;99.90
60033;DHT22;45905;50.570;10.428;2023-06-24T03:34:21;14.40;99.90
60033;DHT22;45905;50.570;10.428;2023-06-24T03:36:49;14.30;99.90
60033;DHT22;45905;50.570;10.428;2023-06-24T03:41:44;14.10;99.90
60033;DHT22;45905;50.570;10.428;2023-06-24T03:44:14;14.30;99.90
60033;DHT22;45905;50.570;10.428;2023-06-24T03:46:41;14.20;99.90
60033;DHT22;45905;50.570;10.428;2023-06-24T03:49:10;14.10;99.90
60033;DHT22;45905;50.570;10.428;2023-06-24T03:51:37;15.10;99.90
60033;DHT22;45905;50.570;10.428;2023-06-24T03:54:05;14.00;99.90
60033;DHT22;45905;50.570;10.428;2023-06-24T04:01:28;14.00;99.90
60033;DHT22;45905;50.570;10.428;2023-06-24T04:03:58;14.00;99.90
60033;DHT22;45905;50.570;10.428;2023-06-24T04:06:26;14.50;99.90
60033;DHT22;45905;50.570;10.428;2023-06-24T04:08:53;14.70;99.90
60033;DHT22;45905;50.570;10.428;2023-06-24T04:11:21;14.50;99.90
60033;DHT22;45905;50.570;10.428;2023-06-24T04:13:49;14.50;99.90
60033;DHT22;45905;50.570;10.428;2023-06-24T04:16:16;14.30;99.90
60033;DHT22;45905;50.570;10.428;2023-06-24T04:18:43;14.20;99.90
60033;DHT22;45905;50.570;10.428;2023-06-24T04:21:10;14.00;99.90
60033;DHT22;45905;50.570;10.428;2023-06-24T04:23:38;14.40;99.90
60033;DHT22;45905;50.570;10.428;2023-06-24T04:26:05;14.40;99.90
60033;DHT22;45905;50.570;10.428;2023-06-24T04:28:32;14.40;99.90
60033;DHT22;45905;50.570;10.428;2023-06-24T04:31:00;14.40;99.90
60033;DHT22;45905;50.570;10.428;2023-06-24T04:35:55;14.10;99.90
60033;DHT22;45905;50.570;10.428;2023-06-24T04:38:24;14.00;99.90
60033;DHT22;45905;50.570;10.428;2023-06-24T04:40:51;14.30;99.90
60033;DHT22;45905;50.570;10.428;2023-06-24T04:43:18;14.40;99.90
60033;DHT22;45905;50.570;10.428;2023-06-24T04:45:45;14.40;99.90
60033;DHT22;45905;50.570;10.428;2023-06-24T04:50:40;14.40;99.90
60033;DHT22;45905;50.570;10.428;2023-06-24T04:53:08;14.60;99.90
60033;DHT22;45905;50.570;10.428;2023-06-24T05:05:26;14.80;99.90
60033;DHT22;45905;50.570;10.428;2023-06-24T05:10:21;14.40;99.90
60033;DHT22;45905;50.570;10.428;2023-06-24T05:17:44;14.80;99.90
60033;DHT22;45905;50.570;10.428;2023-06-24T05:20:11;14.70;99.90
60033;DHT22;45905;50.570;10.428;2023-06-24T05:22:38;14.50;99.90
60033;DHT22;45905;50.570;10.428;2023-06-24T05:25:06;14.80;99.90
60033;DHT22;45905;50.570;10.428;2023-06-24T05:30:01;14.40;99.90
60033;DHT22;45905;50.570;10.428;2023-06-24T05:32:28;14.90;99.90
60033;DHT22;45905;50.570;10.428;2023-06-24T05:34:56;14.80;99.90
60033;DHT22;45905;50.570;10.428;2023-06-24T05:37:23;15.20;99.90
60033;DHT22;45905;50.570;10.428;2023-06-24T05:39:50;14.90;99.90
60033;DHT22;45905;50.570;10.428;2023-06-24T05:42:17;15.00;99.90
60033;DHT22;45905;50.570;10.428;2023-06-24T05:44:45;15.30;99.90
60033;DHT22;45905;50.570;10.428;2023-06-24T05:49:40;15.30;99.90
60033;DHT22;45905;50.570;10.428;2023-06-24T05:52:07;15.60;99.90
60033;DHT22;45905;50.570;10.428;2023-06-24T05:54:34;15.10;99.90
60033;DHT22;45905;50.570;10.428;2023-06-24T05:57:01;15.00;99.90
60033;DHT22;45905;50.570;10.428;2023-06-24T05:59:33;14.90;99.90
60033;DHT22;45905;50.570;10.428;2023-06-24T06:02:00;15.10;99.90
60033;DHT22;45905;50.570;10.428;2023-06-24T06:04:28;15.50;99.90
60033;DHT22;45905;50.570;10.428;2023-06-24T06:06:55;15.70;99.90
60033;DHT22;45905;50.570;10.428;2023-06-24T06:09:23;15.30;99.90
60033;DHT22;45905;50.570;10.428;2023-06-24T06:14:17;15.90;99.90
60033;DHT22;45905;50.570;10.428;2023-06-24T06:16:44;15.30;99.90
60033;DHT22;45905;50.570;10.428;2023-06-24T06:19:12;15.70;99.90
60033;DHT22;45905;50.570;10.428;2023-06-24T06:24:06;16.20;99.90
60033;DHT22;45905;50.570;10.428;2023-06-24T06:26:34;15.70;99.90
60033;DHT22;45905;50.570;10.428;2023-06-24T06:31:29;16.40;99.90
60033;DHT22;45905;50.570;10.428;2023-06-24T06:33:58;15.80;99.90
60033;DHT22;45905;50.570;10.428;2023-06-24T06:38:53;16.30;99.90
60033;DHT22;45905;50.570;10.428;2023-06-24T06:43:53;16.00;99.90
60033;DHT22;45905;50.570;10.428;2023-06-24T06:51:16;16.20;99.90
60033;DHT22;45905;50.570;10.428;2023-06-24T06:53:45;16.20;99.90
60033;DHT22;45905;50.570;10.428;2023-06-24T06:56:24;16.20;99.90
60033;DHT22;45905;50.570;10.428;2023-06-24T06:58:52;16.20;99.90
60033;DHT22;45905;50.570;10.428;2023-06-24T07:01:20;16.50;99.90
60033;DHT22;45905;50.570;10.428;2023-06-24T07:03:49;16.20;99.90
60033;DHT22;45905;50.570;10.428;2023-06-24T07:06:19;16.30;99.90
60033;DHT22;45905;50.570;10.428;2023-06-24T07:08:47;16.80;99.90
60033;DHT22;45905;50.570;10.428;2023-06-24T07:11:14;16.40;99.90
60033;DHT22;45905;50.570;10.428;2023-06-24T07:16:09;16.50;99.90
60033;DHT22;45905;50.570;10.428;2023-06-24T07:21:04;16.20;99.90
60033;DHT22;45905;50.570;10.428;2023-06-24T07:23:31;16.50;99.90
60033;DHT22;45905;50.570;10.428;2023-06-24T07:25:58;16.40;99.90
60033;DHT22;45905;50.570;10.428;2023-06-24T07:33:25;16.60;99.90
60033;DHT22;45905;50.570;10.428;2023-06-24T07:35:52;17.00;99.90
60033;DHT22;45905;50.570;10.428;2023-06-24T07:38:19;16.40;99.90
60033;DHT22;45905;50.570;10.428;2023-06-24T07:40:46;17.00;99.90
60033;DHT22;45905;50.570;10.428;2023-06-24T07:43:14;16.60;99.90
60033;DHT22;45905;50.570;10.428;2023-06-24T07:45:41;16.80;99.90
60033;DHT22;45905;50.570;10.428;2023-06-24T07:48:10;17.40;99.90
60033;DHT22;45905;50.570;10.428;2023-06-24T07:50:38;16.80;99.90
60033;DHT22;45905;50.570;10.428;2023-06-24T07:53:06;17.00;99.90
60033;DHT22;45905;50.570;10.428;2023-06-24T08:00:29;17.30;99.90
60033;DHT22;45905;50.570;10.428;2023-06-24T08:02:57;17.20;99.90
60033;DHT22;45905;50.570;10.428;2023-06-24T08:05:25;17.80;99.90
60033;DHT22;45905;50.570;10.428;2023-06-24T08:07:52;17.40;99.90
60033;DHT22;45905;50.570;10.428;2023-06-24T08:10:20;17.30;99.90
60033;DHT22;45905;50.570;10.428;2023-06-24T08:12:47;17.30;99.90
60033;DHT22;45905;50.570;10.428;2023-06-24T08:15:14;17.50;99.90
60033;DHT22;45905;50.570;10.428;2023-06-24T08:17:41;17.30;99.90
60033;DHT22;45905;50.570;10.428;2023-06-24T08:20:09;17.70;99.90
60033;DHT22;45905;50.570;10.428;2023-06-24T08:22:37;17.70;99.90
60033;DHT22;45905;50.570;10.428;2023-06-24T08:25:04;17.70;99.90
60033;DHT22;45905;50.570;10.428;2023-06-24T08:27:32;17.90;99.90
60033;DHT22;45905;50.570;10.428;2023-06-24T08:32:27;18.20;99.90
60033;DHT22;45905;50.570;10.428;2023-06-24T08:34:54;18.20;99.90
60033;DHT22;45905;50.570;10.428;2023-06-24T08:37:21;18.20;99.90
60033;DHT22;45905;50.570;10.428;2023-06-24T08:39:48;18.10;99.90
60033;DHT22;45905;50.570;10.428;2023-06-24T08:42:15;17.60;99.90
60033;DHT22;45905;50.570;10.428;2023-06-24T08:44:43;18.30;99.90
60033;DHT22;45905;50.570;10.428;2023-06-24T08:47:10;18.50;99.90
60033;DHT22;45905;50.570;10.428;2023-06-24T08:49:46;18.50;99.90
60033;DHT22;45905;50.570;10.428;2023-06-24T08:52:16;18.60;99.90
60033;DHT22;45905;50.570;10.428;2023-06-24T08:54:50;18.50;99.90
60033;DHT22;45905;50.570;10.428;2023-06-24T08:57:18;18.60;99.90
60033;DHT22;45905;50.570;10.428;2023-06-24T08:59:45;18.80;99.90
60033;DHT22;45905;50.570;10.428;2023-06-24T09:02:13;18.70;99.90
60033;DHT22;45905;50.570;10.428;2023-06-24T09:04:41;18.40;99.90
60033;DHT22;45905;50.570;10.428;2023-06-24T09:07:09;18.80;99.90
60033;DHT22;45905;50.570;10.428;2023-06-24T09:09:43;18.70;99.90
60033;DHT22;45905;50.570;10.428;2023-06-24T09:12:13;18.90;99.90
60033;DHT22;45905;50.570;10.428;2023-06-24T09:14:48;19.10;99.90
60033;DHT22;45905;50.570;10.428;2023-06-24T09:17:17;19.00;99.40
60033;DHT22;45905;50.570;10.428;2023-06-24T09:19:44;19.10;99.00
60033;DHT22;45905;50.570;10.428;2023-06-24T09:22:11;19.10;99.50
60033;DHT22;45905;50.570;10.428;2023-06-24T09:24:45;19.20;98.70
60033;DHT22;45905;50.570;10.428;2023-06-24T09:27:15;19.10;98.60
60033;DHT22;45905;50.570;10.428;2023-06-24T09:29:46;19.20;98.70
60033;DHT22;45905;50.570;10.428;2023-06-24T09:32:14;19.30;98.60
60033;DHT22;45905;50.570;10.428;2023-06-24T09:34:43;19.40;97.80
60033;DHT22;45905;50.570;10.428;2023-06-24T09:37:10;19.30;97.20
60033;DHT22;45905;50.570;10.428;2023-06-24T09:39:47;19.40;97.30
60033;DHT22;45905;50.570;10.428;2023-06-24T09:42:15;19.40;98.30
60033;DHT22;45905;50.570;10.428;2023-06-24T09:44:42;19.50;98.70
60033;DHT22;45905;50.570;10.428;2023-06-24T09:47:09;19.60;97.70
60033;DHT22;45905;50.570;10.428;2023-06-24T09:49:36;19.60;97.00
60033;DHT22;45905;50.570;10.428;2023-06-24T09:52:04;19.70;96.90
60033;DHT22;45905;50.570;10.428;2023-06-24T09:54:34;19.80;97.10
60033;DHT22;45905;50.570;10.428;2023-06-24T09:57:02;19.80;97.20
60033;DHT22;45905;50.570;10.428;2023-06-24T09:59:31;19.90;97.30
60033;DHT22;45905;50.570;10.428;2023-06-24T10:02:03;19.90;97.10
60033;DHT22;45905;50.570;10.428;2023-06-24T10:04:32;20.00;98.20
60033;DHT22;45905;50.570;10.428;2023-06-24T10:07:00;20.10;97.80
60033;DHT22;45905;50.570;10.428;2023-06-24T10:09:29;20.20;98.10
60033;DHT22;45905;50.570;10.428;2023-06-24T10:11:56;20.30;97.70
60033;DHT22;45905;50.570;10.428;2023-06-24T10:14:24;22.30;98.40
60033;DHT22;45905;50.570;10.428;2023-06-24T10:16:54;20.40;97.60
60033;DHT22;45905;50.570;10.428;2023-06-24T10:19:28;20.50;97.90
60033;DHT22;45905;50.570;10.428;2023-06-24T10:21:58;20.60;97.50
60033;DHT22;45905;50.570;10.428;2023-06-24T10:24:30;20.50;97.20
60033;DHT22;45905;50.570;10.428;2023-06-24T10:27:03;20.70;97.30
60033;DHT22;45905;50.570;10.428;2023-06-24T10:29:52;20.70;96.80
60033;DHT22;45905;50.570;10.428;2023-06-24T10:32:23;20.80;96.80
60033;DHT22;45905;50.570;10.428;2023-06-24T10:34:57;20.80;96.40
60033;DHT22;45905;50.570;10.428;2023-06-24T10:37:26;20.80;97.00
60033;DHT22;45905;50.570;10.428;2023-06-24T10:40:00;21.10;97.80
60033;DHT22;45905;50.570;10.428;2023-06-24T10:42:41;21.10;97.80
60033;DHT22;45905;50.570;10.428;2023-06-24T10:47:38;21.50;96.70
60033;DHT22;45905;50.570;10.428;2023-06-24T10:50:08;21.30;96.80
60033;DHT22;45905;50.570;10.428;2023-06-24T10:52:42;21.50;96.80
60033;DHT22;45905;50.570;10.428;2023-06-24T10:55:17;21.40;97.10
60033;DHT22;45905;50.570;10.428;2023-06-24T10:57:45;21.70;95.80
60033;DHT22;45905;50.570;10.428;2023-06-24T11:00:13;21.70;95.80
60033;DHT22;45905;50.570;10.428;2023-06-24T11:02:42;26.00;97.50
60033;DHT22;45905;50.570;10.428;2023-06-24T11:05:11;21.70;94.40
60033;DHT22;45905;50.570;10.428;2023-06-24T11:07:38;21.80;95.20
60033;DHT22;45905;50.570;10.428;2023-06-24T11:10:07;21.80;95.20
60033;DHT22;45905;50.570;10.428;2023-06-24T11:12:40;21.90;94.90
60033;DHT22;45905;50.570;10.428;2023-06-24T11:15:12;22.10;94.40
60033;DHT22;45905;50.570;10.428;2023-06-24T11:17:41;22.20;95.30
60033;DHT22;45905;50.570;10.428;2023-06-24T11:20:10;22.60;95.50
60033;DHT22;45905;50.570;10.428;2023-06-24T11:22:40;22.70;94.70
60033;DHT22;45905;50.570;10.428;2023-06-24T11:25:18;22.60;95.40
60033;DHT22;45905;50.570;10.428;2023-06-24T11:27:47;23.00;94.50
60033;DHT22;45905;50.570;10.428;2023-06-24T11:30:15;23.00;94.20
60033;DHT22;45905;50.570;10.428;2023-06-24T11:32:44;23.30;94.00
60033;DHT22;45905;50.570;10.428;2023-06-24T11:35:13;23.40;93.10
60033;DHT22;45905;50.570;10.428;2023-06-24T11:37:46;23.50;91.30
60033;DHT22;45905;50.570;10.428;2023-06-24T11:40:17;23.80;88.90
60033;DHT22;45905;50.570;10.428;2023-06-24T11:42:48;24.10;88.00
60033;DHT22;45905;50.570;10.428;2023-06-24T11:45:21;24.20;87.60
60033;DHT22;45905;50.570;10.428;2023-06-24T11:47:49;24.30;86.50
60033;DHT22;45905;50.570;10.428;2023-06-24T11:52:46;24.40;89.60
60033;DHT22;45905;50.570;10.428;2023-06-24T11:55:21;24.70;86.60
60033;DHT22;45905;50.570;10.428;2023-06-24T12:02:58;24.60;90.80
60033;DHT22;45905;50.570;10.428;2023-06-24T12:05:32;24.50;83.80
60033;DHT22;45905;50.570;10.428;2023-06-24T12:08:05;24.90;84.00
60033;DHT22;45905;50.570;10.428;2023-06-24T12:10:38;25.20;81.60
60033;DHT22;45905;50.570;10.428;2023-06-24T12:13:06;25.30;82.20
60033;DHT22;45905;50.570;10.428;2023-06-24T12:18:04;25.30;79.30
60033;DHT22;45905;50.570;10.428;2023-06-24T12:20:35;25.70;80.40
60033;DHT22;45905;50.570;10.428;2023-06-24T12:23:07;25.60;76.80
60033;DHT22;45905;50.570;10.428;2023-06-24T12:25:34;26.30;75.20
60033;DHT22;45905;50.570;10.428;2023-06-24T12:28:02;25.80;75.90
60033;DHT22;45905;50.570;10.428;2023-06-24T12:30:29;26.30;78.90
60033;DHT22;45905;50.570;10.428;2023-06-24T12:32:56;25.60;76.30
60033;DHT22;45905;50.570;10.428;2023-06-24T12:40:22;26.30;76.00
60033;DHT22;45905;50.570;10.428;2023-06-24T12:45:16;25.90;72.60
60033;DHT22;45905;50.570;10.428;2023-06-24T12:47:44;26.00;71.30
60033;DHT22;45905;50.570;10.428;2023-06-24T12:52:39;26.90;73.40
60033;DHT22;45905;50.570;10.428;2023-06-24T12:55:07;27.00;73.30
60033;DHT22;45905;50.570;10.428;2023-06-24T12:57:35;27.10;75.50
60033;DHT22;45905;50.570;10.428;2023-06-24T13:00:04;27.30;74.00
60033;DHT22;45905;50.570;10.428;2023-06-24T13:02:33;27.50;68.00
60033;DHT22;45905;50.570;10.428;2023-06-24T13:07:28;28.00;66.90
60033;DHT22;45905;50.570;10.428;2023-06-24T13:09:55;27.50;66.90
60033;DHT22;45905;50.570;10.428;2023-06-24T13:19:45;28.20;66.80
60033;DHT22;45905;50.570;10.428;2023-06-24T13:24:40;29.40;58.70
60033;DHT22;45905;50.570;10.428;2023-06-24T13:27:07;28.90;59.00
60033;DHT22;45905;50.570;10.428;2023-06-24T13:29:35;29.20;60.50
60033;DHT22;45905;50.570;10.428;2023-06-24T13:32:02;29.60;57.90
60033;DHT22;45905;50.570;10.428;2023-06-24T13:36:57;29.80;61.70
60033;DHT22;45905;50.570;10.428;2023-06-24T13:44:19;29.80;57.40
60033;DHT22;45905;50.570;10.428;2023-06-24T13:46:47;30.20;58.00
60033;DHT22;45905;50.570;10.428;2023-06-24T13:49:14;29.90;56.30
60033;DHT22;45905;50.570;10.428;2023-06-24T13:51:42;29.30;57.20
60033;DHT22;45905;50.570;10.428;2023-06-24T13:54:09;29.90;55.90
60033;DHT22;45905;50.570;10.428;2023-06-24T14:23:43;30.30;54.10
60033;DHT22;45905;50.570;10.428;2023-06-24T14:26:11;30.60;52.00
60033;DHT22;45905;50.570;10.428;2023-06-24T14:45:51;30.40;52.90
60033;DHT22;45905;50.570;10.428;2023-06-24T15:35:06;28.10;50.70
60033;DHT22;45905;50.570;10.428;2023-06-24T17:23:36;28.90;49.80
60033;DHT22;45905;50.570;10.428;2023-06-24T18:30:09;27.70;73.20
60033;DHT22;45905;50.570;10.428;2023-06-24T18:52:21;26.40;72.10
60033;DHT22;45905;50.570;10.428;2023-06-24T18:59:44;26.80;59.00
60033;DHT22;45905;50.570;10.428;2023-06-24T19:12:02;26.20;71.00
60033;DHT22;45905;50.570;10.428;2023-06-24T19:19:24;26.20;73.90
60033;DHT22;45905;50.570;10.428;2023-06-24T19:44:05;24.90;64.50
60033;DHT22;45905;50.570;10.428;2023-06-24T19:46:36;24.50;68.40
60033;DHT22;45905;50.570;10.428;2023-06-24T19:54:07;24.70;66.80
60033;DHT22;45905;50.570;10.428;2023-06-24T19:56:34;24.70;70.30
60033;DHT22;45905;50.570;10.428;2023-06-24T19:59:01;24.20;71.00
60033;DHT22;45905;50.570;10.428;2023-06-24T20:01:28;23.70;69.40
60033;DHT22;45905;50.570;10.428;2023-06-24T20:11:18;22.90;69.90
60033;DHT22;45905;50.570;10.428;2023-06-24T20:16:15;23.30;69.50
60033;DHT22;45905;50.570;10.428;2023-06-24T20:18:42;23.20;70.50
60033;DHT22;45905;50.570;10.428;2023-06-24T20:23:40;23.10;70.30
60033;DHT22;45905;50.570;10.428;2023-06-24T20:33:32;23.20;72.50
60033;DHT22;45905;50.570;10.428;2023-06-24T20:38:27;22.60;71.10
60033;DHT22;45905;50.570;10.428;2023-06-24T20:43:24;22.40;71.40
60033;DHT22;45905;50.570;10.428;2023-06-24T20:45:52;21.90;71.00
60033;DHT22;45905;50.570;10.428;2023-06-24T20:48:22;22.20;71.60
60033;DHT22;45905;50.570;10.428;2023-06-24T20:53:18;22.20;71.80
60033;DHT22;45905;50.570;10.428;2023-06-24T20:55:45;21.70;71.70
60033;DHT22;45905;50.570;10.428;2023-06-24T21:00:40;21.90;72.30
60033;DHT22;45905;50.570;10.428;2023-06-24T21:05:35;21.60;73.80
60033;DHT22;45905;50.570;10.428;2023-06-24T21:08:02;21.10;74.00
60033;DHT22;45905;50.570;10.428;2023-06-24T21:10:30;21.10;74.40
60033;DHT22;45905;50.570;10.428;2023-06-24T21:12:57;21.30;74.80
60033;DHT22;45905;50.570;10.428;2023-06-24T21:15:25;21.30;74.50
60033;DHT22;45905;50.570;10.428;2023-06-24T21:20:20;21.60;75.50
60033;DHT22;45905;50.570;10.428;2023-06-24T21:22:47;21.30;75.30
60033;DHT22;45905;50.570;10.428;2023-06-24T21:25:15;21.30;75.10
60033;DHT22;45905;50.570;10.428;2023-06-24T21:27:42;21.00;75.10
60033;DHT22;45905;50.570;10.428;2023-06-24T21:30:09;20.80;75.90
60033;DHT22;45905;50.570;10.428;2023-06-24T21:32:37;20.80;76.60
60033;DHT22;45905;50.570;10.428;2023-06-24T21:35:04;20.70;77.00
60033;DHT22;45905;50.570;10.428;2023-06-24T21:37:32;21.00;77.70
60033;DHT22;45905;50.570;10.428;2023-06-24T21:39:59;20.70;77.80
60033;DHT22;45905;50.570;10.428;2023-06-24T21:42:26;20.40;77.50
60033;DHT22;45905;50.570;10.428;2023-06-24T21:44:53;20.40;78.00
60033;DHT22;45905;50.570;10.428;2023-06-24T21:47:21;20.90;78.00
60033;DHT22;45905;50.570;10.428;2023-06-24T21:49:48;20.30;78.40
60033;DHT22;45905;50.570;10.428;2023-06-24T21:54:44;19.80;79.40
60033;DHT22;45905;50.570;10.428;2023-06-24T21:57:11;20.00;80.00
60033;DHT22;45905;50.570;10.428;2023-06-24T21:59:38;20.00;79.60
60033;DHT22;45905;50.570;10.428;2023-06-24T22:02:05;19.50;78.60
60033;DHT22;45905;50.570;10.428;2023-06-24T22:04:33;19.60;78.40
60033;DHT22;45905;50.570;10.428;2023-06-24T22:07:00;19.50;79.60
60033;DHT22;45905;50.570;10.428;2023-06-24T22:11:55;19.70;79.60
60033;DHT22;45905;50.570;10.428;2023-06-24T22:14:22;19.70;80.00
60033;DHT22;45905;50.570;10.428;2023-06-24T22:16:49;19.60;80.30
60033;DHT22;45905;50.570;10.428;2023-06-24T22:19:16;19.40;80.50
60033;DHT22;45905;50.570;10.428;2023-06-24T22:21:45;19.40;82.10
60033;DHT22;45905;50.570;10.428;2023-06-24T22:24:12;19.40;82.90
60033;DHT22;45905;50.570;10.428;2023-06-24T22:34:01;19.20;82.60
60033;DHT22;45905;50.570;10.428;2023-06-24T22:36:29;19.10;83.50
60033;DHT22;45905;50.570;10.428;2023-06-24T22:38:56;18.90;83.40
60033;DHT22;45905;50.570;10.428;2023-06-24T22:43:50;19.00;83.80
60033;DHT22;45905;50.570;10.428;2023-06-24T22:46:18;18.90;84.00
60033;DHT22;45905;50.570;10.428;2023-06-24T22:48:45;18.70;83.90
60033;DHT22;45905;50.570;10.428;2023-06-24T22:53:39;18.70;83.10
60033;DHT22;45905;50.570;10.428;2023-06-24T22:56:07;18.70;83.30
60033;DHT22;45905;50.570;10.428;2023-06-24T22:58:34;18.30;83.90
60033;DHT22;45905;50.570;10.428;2023-06-24T23:01:03;18.50;85.10
60033;DHT22;45905;50.570;10.428;2023-06-24T23:03:31;18.30;85.40
60033;DHT22;45905;50.570;10.428;2023-06-24T23:05:58;18.50;86.60
60033;DHT22;45905;50.570;10.428;2023-06-24T23:08:26;18.60;87.50
60033;DHT22;45905;50.570;10.428;2023-06-24T23:10:54;18.40;87.10
60033;DHT22;45905;50.570;10.428;2023-06-24T23:13:22;18.30;87.80
60033;DHT22;45905;50.570;10.428;2023-06-24T23:15:49;18.40;88.10
60033;DHT22;45905;50.570;10.428;2023-06-24T23:18:17;18.20;88.50
60033;DHT22;45905;50.570;10.428;2023-06-24T23:20:45;18.30;88.20
60033;DHT22;45905;50.570;10.428;2023-06-24T23:23:12;18.20;88.40
60033;DHT22;45905;50.570;10.428;2023-06-24T23:25:41;18.10;88.40
60033;DHT22;45905;50.570;10.428;2023-06-24T23:28:10;18.10;89.10
60033;DHT22;45905;50.570;10.428;2023-06-24T23:30:46;18.00;90.00
60033;DHT22;45905;50.570;10.428;2023-06-24T23:33:15;18.00;90.30
60033;DHT22;45905;50.570;10.428;2023-06-24T23:35:47;17.90;90.00
60033;DHT22;45905;50.570;10.428;2023-06-24T23:38:19;17.90;89.30
60033;DHT22;45905;50.570;10.428;2023-06-24T23:40:48;17.80;88.80
60033;DHT22;45905;50.570;10.428;2023-06-24T23:43:15;17.80;88.80
60033;DHT22;45905;50.570;10.428;2023-06-24T23:45:48;17.70;88.70
60033;DHT22;45905;50.570;10.428;2023-06-24T23:48:17;17.60;88.50
60033;DHT22;45905;50.570;10.428;2023-06-24T23:50:45;17.80;88.50
60033;DHT22;45905;50.570;10.428;2023-06-24T23:53:12;17.60;88.30